createdAt,value
2023-04-10T00:00:04.134Z,17.60
2023-04-10T00:02:31.430Z,16.50
2023-04-10T00:04:59.123Z,16.43
2023-04-10T00:07:26.484Z,14.83
2023-04-10T00:09:53.628Z,16.80
2023-04-10T00:12:20.979Z,14.90
2023-04-10T00:14:47.874Z,16.13
2023-04-10T00:17:14.723Z,18.07
2023-04-10T00:19:41.551Z,17.23
2023-04-10T00:22:08.385Z,15.60
2023-04-10T00:24:35.322Z,14.57
2023-04-10T00:27:02.198Z,15.77
2023-04-10T00:29:29.085Z,14.03
2023-04-10T00:31:55.962Z,15.20
2023-04-10T00:34:22.790Z,14.77
2023-04-10T00:36:49.662Z,15.47
2023-04-10T00:39:16.525Z,14.90
2023-04-10T00:41:43.465Z,16.93
2023-04-10T00:44:10.400Z,15.90
2023-04-10T00:46:39.079Z,16.03
2023-04-10T00:49:06.437Z,14.93
2023-04-10T00:51:33.782Z,17.57
2023-04-10T00:54:02.274Z,15.57
2023-04-10T00:56:32.166Z,14.03
2023-04-10T00:58:59.091Z,17.20
2023-04-10T01:01:26.251Z,17.07
2023-04-10T01:03:54.556Z,14.73
2023-04-10T01:06:21.596Z,16.70
2023-04-10T01:09:31.949Z,17.03
2023-04-10T01:12:12.287Z,17.17
2023-04-10T01:15:04.089Z,18.50
2023-04-10T01:17:59.943Z,17.80
2023-04-10T01:20:31.969Z,18.40
2023-04-10T01:23:12.610Z,17.53
2023-04-10T01:25:51.015Z,17.93
2023-04-10T01:29:01.594Z,19.00
2023-04-10T01:32:11.874Z,18.60
2023-04-10T01:34:47.927Z,18.03
2023-04-10T01:37:24.702Z,19.97
2023-04-10T01:39:59.650Z,16.57
2023-04-10T01:42:32.933Z,17.10
2023-04-10T01:45:01.251Z,15.00
2023-04-10T01:47:28.828Z,14.87
2023-04-10T01:49:56.774Z,16.40
2023-04-10T01:52:24.893Z,18.87
2023-04-10T01:54:53.280Z,16.87
2023-04-10T01:57:20.427Z,18.43
2023-04-10T01:59:47.412Z,19.93
2023-04-10T02:02:14.323Z,19.03
2023-04-10T02:04:41.350Z,18.40
2023-04-10T02:07:23.964Z,17.97
2023-04-10T02:10:15.568Z,17.13
2023-04-10T02:12:53.542Z,18.27
2023-04-10T02:15:23.729Z,16.17
2023-04-10T02:17:52.289Z,17.80
2023-04-10T02:20:19.640Z,17.00
2023-04-10T02:22:47.225Z,17.60
2023-04-10T02:25:14.939Z,17.00
2023-04-10T02:27:42.381Z,19.00
2023-04-10T02:30:09.662Z,17.77
2023-04-10T02:32:36.934Z,18.57
2023-04-10T02:35:04.441Z,17.80
2023-04-10T02:37:31.764Z,19.87
2023-04-10T02:39:58.597Z,20.27
2023-04-10T02:42:25.432Z,17.37
2023-04-10T02:44:52.239Z,18.97
2023-04-10T02:47:19.145Z,18.63
2023-04-10T02:49:46.075Z,20.27
2023-04-10T02:52:13.002Z,20.07
2023-04-10T02:54:40.336Z,20.40
2023-04-10T02:57:07.332Z,21.07
2023-04-10T02:59:34.211Z,20.50
2023-04-10T03:02:01.162Z,21.70
2023-04-10T03:04:29.082Z,20.47
2023-04-10T03:06:56.105Z,21.90
2023-04-10T03:09:22.912Z,22.73
2023-04-10T03:11:49.750Z,22.37
2023-04-10T03:14:17.127Z,23.80
2023-04-10T03:16:44.233Z,25.30
2023-04-10T03:19:12.773Z,22.63
2023-04-10T03:21:39.695Z,23.43
2023-04-10T03:24:07.134Z,26.43
2023-04-10T03:26:33.932Z,22.37
2023-04-10T03:29:00.867Z,24.37
2023-04-10T03:31:28.079Z,22.93
2023-04-10T03:33:55.200Z,21.90
2023-04-10T03:36:22.233Z,22.63
2023-04-10T03:38:49.162Z,20.97
2023-04-10T03:41:15.985Z,22.47
2023-04-10T03:43:42.777Z,23.30
2023-04-10T03:46:09.644Z,20.17
2023-04-10T03:48:36.453Z,20.93
2023-04-10T03:51:03.531Z,23.67
2023-04-10T03:53:30.422Z,22.70
2023-04-10T03:55:57.350Z,23.77
2023-04-10T03:58:24.201Z,22.60
2023-04-10T04:00:51.566Z,23.53
2023-04-10T04:03:18.619Z,23.50
2023-04-10T04:05:45.820Z,23.63
2023-04-10T04:08:13.998Z,24.90
2023-04-10T04:10:40.917Z,24.37
2023-04-10T04:13:07.732Z,22.50
2023-04-10T04:15:34.635Z,26.13
2023-04-10T04:18:01.494Z,26.07
2023-04-10T04:20:28.586Z,24.87
2023-04-10T04:22:55.540Z,23.63
2023-04-10T04:25:22.448Z,26.80
2023-04-10T04:27:49.251Z,23.20
2023-04-10T04:30:16.254Z,24.10
2023-04-10T04:32:43.151Z,25.50
2023-04-10T04:35:10.747Z,23.57
2023-04-10T04:37:37.600Z,25.50
2023-04-10T04:40:04.964Z,23.83
2023-04-10T04:42:31.734Z,23.37
2023-04-10T04:44:58.545Z,24.77
2023-04-10T04:47:25.655Z,26.43
2023-04-10T04:49:52.562Z,27.30
2023-04-10T04:52:19.392Z,25.10
2023-04-10T04:54:46.195Z,25.23
2023-04-10T04:57:13.053Z,24.20
2023-04-10T04:59:39.850Z,26.80
2023-04-10T05:02:06.989Z,25.33
2023-04-10T05:04:33.930Z,23.13
2023-04-10T05:07:01.005Z,22.70
2023-04-10T05:09:27.795Z,26.07
2023-04-10T05:11:54.751Z,23.33
2023-04-10T05:14:22.253Z,21.90
2023-04-10T05:16:49.114Z,23.17
2023-04-10T05:19:16.228Z,24.13
2023-04-10T05:21:43.353Z,22.63
2023-04-10T05:24:10.415Z,22.13
2023-04-10T05:26:37.446Z,22.50
2023-04-10T05:29:04.815Z,23.37
2023-04-10T05:31:31.793Z,20.40
2023-04-10T05:33:58.709Z,21.27
2023-04-10T05:36:25.605Z,21.80
2023-04-10T05:38:52.892Z,20.07
2023-04-10T05:41:20.058Z,20.60
2023-04-10T05:43:46.879Z,21.20
2023-04-10T05:46:13.761Z,18.80
2023-04-10T05:48:40.875Z,16.47
2023-04-10T05:51:07.962Z,16.10
2023-04-10T05:53:35.132Z,17.23
2023-04-10T05:56:04.980Z,21.20
2023-04-10T05:58:31.865Z,21.13
2023-04-10T06:00:58.796Z,25.17
2023-04-10T06:03:27.705Z,25.50
2023-04-10T06:05:56.069Z,25.00
2023-04-10T06:08:22.949Z,24.87
2023-04-10T06:10:49.830Z,24.40
2023-04-10T06:13:16.712Z,23.33
2023-04-10T06:15:43.581Z,23.23
2023-04-10T06:18:10.472Z,21.60
2023-04-10T06:20:37.291Z,21.53
2023-04-10T06:23:04.142Z,21.63
2023-04-10T06:25:31.011Z,20.43
2023-04-10T06:27:58.102Z,21.53
2023-04-10T06:30:25.002Z,20.67
2023-04-10T06:32:51.861Z,22.10
2023-04-10T06:35:18.771Z,22.53
2023-04-10T06:37:45.940Z,19.47
2023-04-10T06:40:16.090Z,22.13
2023-04-10T06:42:43.242Z,20.53
2023-04-10T06:45:10.583Z,22.53
2023-04-10T06:47:37.634Z,21.10
2023-04-10T06:50:04.951Z,20.40
2023-04-10T06:52:32.700Z,21.33
2023-04-10T06:54:59.841Z,19.90
2023-04-10T06:57:26.707Z,18.70
2023-04-10T06:59:53.614Z,19.13
2023-04-10T07:02:20.862Z,18.70
2023-04-10T07:04:47.776Z,19.30
2023-04-10T07:07:15.862Z,17.17
2023-04-10T07:09:42.915Z,16.87
2023-04-10T07:12:09.740Z,15.40
2023-04-10T07:14:36.686Z,15.20
2023-04-10T07:17:03.850Z,14.10
2023-04-10T07:19:31.325Z,14.03
2023-04-10T07:21:58.208Z,15.37
2023-04-10T07:24:25.192Z,15.53
2023-04-10T07:26:52.097Z,14.37
2023-04-10T07:29:20.988Z,14.53
2023-04-10T07:31:48.048Z,13.77
2023-04-10T07:34:15.067Z,14.67
2023-04-10T07:36:41.891Z,15.50
2023-04-10T07:39:08.704Z,15.13
2023-04-10T07:41:35.881Z,12.87
2023-04-10T07:44:02.734Z,14.87
2023-04-10T07:46:29.581Z,13.60
2023-04-10T07:48:56.652Z,14.23
2023-04-10T07:51:23.952Z,12.60
2023-04-10T07:53:50.807Z,11.97
2023-04-10T07:56:19.504Z,11.50
2023-04-10T07:58:47.467Z,11.60
2023-04-10T08:01:15.721Z,12.50
2023-04-10T08:03:45.620Z,12.20
2023-04-10T08:06:12.899Z,11.10
2023-04-10T08:08:42.090Z,10.67
2023-04-10T08:11:29.783Z,11.03
2023-04-10T08:14:01.603Z,10.97
2023-04-10T08:16:36.198Z,10.33
2023-04-10T08:19:03.768Z,10.20
2023-04-10T08:21:32.191Z,10.13
2023-04-10T08:24:01.811Z,10.17
2023-04-10T08:26:29.395Z,9.57
2023-04-10T08:28:59.864Z,10.07
2023-04-10T08:31:29.032Z,10.20
2023-04-10T08:33:57.277Z,10.33
2023-04-10T08:36:24.684Z,10.77
2023-04-10T08:38:51.576Z,10.13
2023-04-10T08:41:19.960Z,11.03
2023-04-10T08:43:47.507Z,9.53
2023-04-10T08:46:15.123Z,10.57
2023-04-10T08:49:03.284Z,11.33
2023-04-10T08:51:39.982Z,10.40
2023-04-10T08:54:11.872Z,11.33
2023-04-10T08:56:41.757Z,12.60
2023-04-10T08:59:09.255Z,10.20
2023-04-10T09:01:36.439Z,11.27
2023-04-10T09:04:03.603Z,11.50
2023-04-10T09:06:31.493Z,10.50
2023-04-10T09:11:52.555Z,10.87
2023-04-10T09:14:36.460Z,10.90
2023-04-10T09:17:20.327Z,11.33
2023-04-10T09:19:52.730Z,10.67
2023-04-10T09:22:36.343Z,10.90
2023-04-10T09:25:04.724Z,9.63
2023-04-10T09:27:37.386Z,10.63
2023-04-10T09:30:06.478Z,10.17
2023-04-10T09:32:46.457Z,10.23
2023-04-10T09:35:16.718Z,10.17
2023-04-10T09:37:46.619Z,9.70
2023-04-10T09:40:25.149Z,10.23
2023-04-10T09:42:53.354Z,8.93
2023-04-10T09:45:20.730Z,9.63
2023-04-10T09:48:08.501Z,9.63
2023-04-10T09:50:40.826Z,8.93
2023-04-10T09:53:19.255Z,10.50
2023-04-10T09:55:48.055Z,9.33
2023-04-10T09:58:16.402Z,9.13
2023-04-10T10:00:49.240Z,9.50
2023-04-10T10:03:19.703Z,9.20
2023-04-10T10:05:52.456Z,9.40
2023-04-10T10:08:20.001Z,9.97
2023-04-10T10:10:55.926Z,8.93
2023-04-10T10:13:41.218Z,9.90
2023-04-10T10:16:33.743Z,10.03
2023-04-10T10:19:10.785Z,8.47
2023-04-10T10:21:39.077Z,8.70
2023-04-10T10:24:09.457Z,8.87
2023-04-10T10:26:40.074Z,9.17
2023-04-10T10:29:11.095Z,9.83
2023-04-10T10:31:38.825Z,9.67
2023-04-10T10:34:09.173Z,9.03
2023-04-10T10:36:37.289Z,9.20
2023-04-10T10:39:29.750Z,8.53
2023-04-10T10:42:10.832Z,9.97
2023-04-10T10:45:11.637Z,9.23
2023-04-10T10:47:54.379Z,9.37
2023-04-10T10:50:24.270Z,9.30
2023-04-10T10:52:54.029Z,9.33
2023-04-10T10:55:36.428Z,8.53
2023-04-10T10:58:07.749Z,9.07
2023-04-10T11:00:52.933Z,8.77
2023-04-10T11:03:19.815Z,9.83
2023-04-10T11:05:58.649Z,9.00
2023-04-10T11:08:42.426Z,9.10
2023-04-10T11:11:15.769Z,9.00
2023-04-10T11:13:57.587Z,8.67
2023-04-10T11:16:44.215Z,9.20
2023-04-10T11:19:19.027Z,8.60
2023-04-10T11:22:05.268Z,8.57
2023-04-10T11:24:57.477Z,10.00
2023-04-10T11:27:45.837Z,9.30
2023-04-10T11:30:48.307Z,8.97
2023-04-10T11:33:19.119Z,8.63
2023-04-10T11:35:47.029Z,9.47
2023-04-10T11:38:18.088Z,8.97
2023-04-10T11:41:04.343Z,8.13
2023-04-10T11:43:32.142Z,9.23
2023-04-10T11:46:04.669Z,8.00
2023-04-10T11:48:32.403Z,7.93
2023-04-10T11:51:01.696Z,7.97
2023-04-10T11:53:29.998Z,9.40
2023-04-10T11:55:56.921Z,8.03
2023-04-10T11:58:30.481Z,8.37
2023-04-10T12:00:58.780Z,8.13
2023-04-10T12:03:37.513Z,7.53
2023-04-10T12:06:10.362Z,7.20
2023-04-10T12:08:41.223Z,7.57
2023-04-10T12:11:10.383Z,6.17
2023-04-10T12:13:37.900Z,6.23
2023-04-10T12:16:08.231Z,6.23
2023-04-10T12:18:35.997Z,6.77
2023-04-10T12:21:05.536Z,5.80
2023-04-10T12:23:37.325Z,5.97
2023-04-10T12:26:14.554Z,6.30
2023-04-10T12:28:50.796Z,5.87
2023-04-10T12:31:17.882Z,5.00
2023-04-10T12:33:47.794Z,4.53
2023-04-10T12:36:32.154Z,4.60
2023-04-10T12:39:01.566Z,4.70
2023-04-10T12:41:37.261Z,4.47
2023-04-10T12:44:09.608Z,4.60
2023-04-10T12:46:36.728Z,5.10
2023-04-10T12:49:18.370Z,5.27
2023-04-10T12:51:50.530Z,4.57
2023-04-10T12:54:35.193Z,4.70
2023-04-10T12:57:04.213Z,4.60
2023-04-10T12:59:31.657Z,5.97
2023-04-10T13:01:58.804Z,4.90
2023-04-10T13:04:26.205Z,4.87
2023-04-10T13:06:53.356Z,4.87
2023-04-10T13:09:20.373Z,4.60
2023-04-10T13:11:48.488Z,4.70
2023-04-10T13:14:17.013Z,5.77
2023-04-10T13:16:44.090Z,4.87
2023-04-10T13:19:11.005Z,4.50
2023-04-10T13:21:37.838Z,4.57
2023-04-10T13:24:04.779Z,5.13
2023-04-10T13:26:31.626Z,4.63
2023-04-10T13:28:58.468Z,4.50
2023-04-10T13:31:25.517Z,4.47
2023-04-10T13:33:52.415Z,3.93
2023-04-10T13:36:19.350Z,3.80
2023-04-10T13:38:46.270Z,4.03
2023-04-10T13:41:13.118Z,4.83
2023-04-10T13:43:40.226Z,4.30
2023-04-10T13:46:07.379Z,4.27
2023-04-10T13:48:40.447Z,4.17
2023-04-10T13:51:08.297Z,4.50
2023-04-10T13:53:35.775Z,3.90
2023-04-10T13:56:02.600Z,4.03
2023-04-10T13:58:31.914Z,3.87
2023-04-10T14:00:59.337Z,4.00
2023-04-10T14:03:26.409Z,4.00
2023-04-10T14:05:54.349Z,3.47
2023-04-10T14:08:21.306Z,3.87
2023-04-10T14:10:51.502Z,3.87
2023-04-10T14:13:18.821Z,3.80
2023-04-10T14:15:46.027Z,4.40
2023-04-10T14:18:13.094Z,3.87
2023-04-10T14:20:42.350Z,4.70
2023-04-10T14:23:09.807Z,4.30
2023-04-10T14:25:36.710Z,5.03
2023-04-10T14:28:03.563Z,3.80
2023-04-10T14:30:32.664Z,4.23
2023-04-10T14:32:59.814Z,4.53
2023-04-10T14:35:26.875Z,4.47
2023-04-10T14:37:53.729Z,4.40
2023-04-10T14:40:20.821Z,3.50
2023-04-10T14:42:47.623Z,4.23
2023-04-10T14:45:14.546Z,3.70
2023-04-10T14:47:41.807Z,3.77
2023-04-10T14:50:09.109Z,3.80
2023-04-10T14:52:35.957Z,3.43
2023-04-10T14:55:02.863Z,3.63
2023-04-10T14:57:29.769Z,3.33
2023-04-10T14:59:56.834Z,3.17
2023-04-10T15:02:24.196Z,3.73
2023-04-10T15:04:51.201Z,3.63
2023-04-10T15:07:18.188Z,3.77
2023-04-10T15:09:46.239Z,3.77
2023-04-10T15:12:13.071Z,3.30
2023-04-10T15:14:39.953Z,2.83
2023-04-10T15:17:06.980Z,3.67
2023-04-10T15:19:33.846Z,3.07
2023-04-10T15:22:00.770Z,3.60
2023-04-10T15:24:29.129Z,3.27
2023-04-10T15:26:57.848Z,4.43
2023-04-10T15:29:24.711Z,3.93
2023-04-10T15:31:51.569Z,3.70
2023-04-10T15:34:19.036Z,3.53
2023-04-10T15:36:45.853Z,3.70
2023-04-10T15:39:12.787Z,3.83
2023-04-10T15:41:39.587Z,3.37
2023-04-10T15:44:06.432Z,3.47
2023-04-10T15:46:34.117Z,3.40
2023-04-10T15:49:01.407Z,3.40
2023-04-10T15:51:28.257Z,3.50
2023-04-10T15:53:55.291Z,3.80
2023-04-10T15:56:22.368Z,2.73
2023-04-10T15:58:49.210Z,3.20
2023-04-10T16:01:16.091Z,3.30
2023-04-10T16:03:43.187Z,4.03
2023-04-10T16:06:10.299Z,3.90
2023-04-10T16:08:37.115Z,3.57
2023-04-10T16:11:04.089Z,3.80
2023-04-10T16:13:30.970Z,3.77
2023-04-10T16:15:57.870Z,4.53
2023-04-10T16:18:24.851Z,4.47
2023-04-10T16:20:51.863Z,4.10
2023-04-10T16:23:19.825Z,4.30
2023-04-10T16:25:46.640Z,4.17
2023-04-10T16:28:13.565Z,4.47
2023-04-10T16:30:40.476Z,4.80
2023-04-10T16:33:07.360Z,5.23
2023-04-10T16:35:34.319Z,4.40
2023-04-10T16:38:01.783Z,4.27
2023-04-10T16:40:32.376Z,4.50
2023-04-10T16:43:02.796Z,4.47
2023-04-10T16:45:29.854Z,4.50
2023-04-10T16:47:56.813Z,4.30
2023-04-10T16:50:23.730Z,4.43
2023-04-10T16:52:50.616Z,4.63
2023-04-10T16:55:17.634Z,4.60
2023-04-10T16:57:44.457Z,4.60
2023-04-10T17:00:11.964Z,5.87
2023-04-10T17:02:39.570Z,4.97
2023-04-10T17:05:06.678Z,4.87
2023-04-10T17:07:34.409Z,5.00
2023-04-10T17:10:01.263Z,5.03
2023-04-10T17:12:28.177Z,5.33
2023-04-10T17:14:55.037Z,5.53
2023-04-10T17:17:22.002Z,5.53
2023-04-10T17:19:49.214Z,6.77
2023-04-10T17:22:16.335Z,4.60
2023-04-10T17:24:44.402Z,4.50
2023-04-10T17:27:12.145Z,5.23
2023-04-10T17:29:39.551Z,5.07
2023-04-10T17:32:08.685Z,4.93
2023-04-10T17:34:36.145Z,4.63
2023-04-10T17:37:03.109Z,5.00
2023-04-10T17:39:30.059Z,4.77
2023-04-10T17:41:57.192Z,4.57
2023-04-10T17:44:24.196Z,6.33
2023-04-10T17:46:51.114Z,4.83
2023-04-10T17:49:17.996Z,5.10
2023-04-10T17:51:44.888Z,5.00
2023-04-10T17:54:11.776Z,5.03
2023-04-10T17:56:38.722Z,4.93
2023-04-10T17:59:05.611Z,4.87
2023-04-10T18:01:32.524Z,5.37
2023-04-10T18:04:00.376Z,4.50
2023-04-10T18:06:27.561Z,5.60
2023-04-10T18:08:58.184Z,4.43
2023-04-10T18:11:25.284Z,4.73
2023-04-10T18:13:52.362Z,4.23
2023-04-10T18:16:19.281Z,5.43
2023-04-10T18:18:46.166Z,5.00
2023-04-10T18:21:13.698Z,4.30
2023-04-10T18:23:40.666Z,4.40
2023-04-10T18:26:07.773Z,4.40
2023-04-10T18:28:35.838Z,5.37
2023-04-10T18:31:02.778Z,4.90
2023-04-10T18:33:29.724Z,4.43
2023-04-10T18:35:59.268Z,6.03
2023-04-10T18:38:26.765Z,4.80
2023-04-10T18:40:57.772Z,4.83
2023-04-10T18:43:25.546Z,4.93
2023-04-10T18:45:52.544Z,4.40
2023-04-10T18:48:19.503Z,5.73
2023-04-10T18:50:46.360Z,5.43
2023-04-10T18:53:13.186Z,5.00
2023-04-10T18:55:39.974Z,5.77
2023-04-10T18:58:06.843Z,5.57
2023-04-10T19:00:34.247Z,5.17
2023-04-10T19:03:01.306Z,5.60
2023-04-10T19:05:32.622Z,6.33
2023-04-10T19:08:04.728Z,5.83
2023-04-10T19:10:32.674Z,5.47
2023-04-10T19:12:59.745Z,7.57
2023-04-10T19:15:27.450Z,6.00
2023-04-10T19:17:55.046Z,5.80
2023-04-10T19:20:50.892Z,6.90
2023-04-10T19:23:09.648Z,6.30
2023-04-10T19:25:36.502Z,6.40
2023-04-10T19:28:03.668Z,5.87
2023-04-10T19:30:30.639Z,6.40
2023-04-10T19:32:57.618Z,6.73
2023-04-10T19:35:24.856Z,7.17
2023-04-10T19:37:51.683Z,6.50
2023-04-10T19:40:19.422Z,7.23
2023-04-10T19:42:46.326Z,7.37
2023-04-10T19:45:14.943Z,7.10
2023-04-10T19:47:41.821Z,7.27
2023-04-10T19:50:09.076Z,7.77
2023-04-10T19:52:36.102Z,7.50
2023-04-10T19:55:02.988Z,7.77
2023-04-10T19:57:29.853Z,7.93
2023-04-10T19:59:56.772Z,7.47
2023-04-10T20:02:23.751Z,7.90
2023-04-10T20:04:50.903Z,7.90
2023-04-10T20:07:17.721Z,7.97
2023-04-10T20:09:44.612Z,9.60
2023-04-10T20:12:11.429Z,8.53
2023-04-10T20:14:38.510Z,7.93
2023-04-10T20:17:05.349Z,8.77
2023-04-10T20:19:32.262Z,8.83
2023-04-10T20:22:01.540Z,10.17
2023-04-10T20:24:29.141Z,8.50
2023-04-10T20:26:57.198Z,9.23
2023-04-10T20:29:23.999Z,7.93
2023-04-10T20:31:50.878Z,9.43
2023-04-10T20:34:17.693Z,8.43
2023-04-10T20:36:44.582Z,9.77
2023-04-10T20:39:11.397Z,8.53
2023-04-10T20:41:38.185Z,8.80
2023-04-10T20:44:05.017Z,8.53
2023-04-10T20:46:31.886Z,8.93
2023-04-10T20:48:59.245Z,7.90
2023-04-10T20:51:29.920Z,9.37
2023-04-10T20:53:56.767Z,8.63
2023-04-10T20:56:32.835Z,8.27
2023-04-10T20:59:03.609Z,8.07
2023-04-10T21:01:30.716Z,8.10
2023-04-10T21:03:58.686Z,8.33
2023-04-10T21:06:26.517Z,9.83
2023-04-10T21:08:53.644Z,9.97
2023-04-10T21:11:22.056Z,8.53
2023-04-10T21:13:49.313Z,9.60
2023-04-10T21:16:16.328Z,9.57
2023-04-10T21:18:43.243Z,8.93
2023-04-10T21:21:10.538Z,10.07
2023-04-10T21:23:37.341Z,10.03
2023-04-10T21:26:04.226Z,9.53
2023-04-10T21:28:31.087Z,9.60
2023-04-10T21:30:57.942Z,9.37
2023-04-10T21:33:24.816Z,8.77
2023-04-10T21:35:51.721Z,10.60
2023-04-10T21:38:18.531Z,10.37
2023-04-10T21:40:55.056Z,9.47
2023-04-10T21:43:22.345Z,10.20
2023-04-10T21:45:49.466Z,9.63
2023-04-10T21:48:16.468Z,10.20
2023-04-10T21:50:43.428Z,9.63
2023-04-10T21:53:10.371Z,9.57
2023-04-10T21:55:37.473Z,11.50
2023-04-10T21:58:04.836Z,9.73
2023-04-10T22:00:33.189Z,9.60
2023-04-10T22:03:00.363Z,10.20
2023-04-10T22:05:27.597Z,10.53
2023-04-10T22:07:54.975Z,10.33
2023-04-10T22:10:21.900Z,11.30
2023-04-10T22:12:49.133Z,11.97
2023-04-10T22:15:17.070Z,10.33
2023-04-10T22:17:43.989Z,10.70
2023-04-10T22:20:11.209Z,11.87
2023-04-10T22:22:38.061Z,13.40
2023-04-10T22:25:05.502Z,10.80
2023-04-10T22:27:33.404Z,11.40
2023-04-10T22:30:03.777Z,11.93
2023-04-10T22:32:32.122Z,11.87
2023-04-10T22:34:59.958Z,10.90
2023-04-10T22:37:27.595Z,10.47
2023-04-10T22:39:56.091Z,10.73
2023-04-10T22:42:23.663Z,11.00
2023-04-10T22:44:50.636Z,10.83
2023-04-10T22:47:17.954Z,11.97
2023-04-10T22:49:45.260Z,11.33
2023-04-10T22:52:16.169Z,12.40
2023-04-10T22:54:43.039Z,11.57
2023-04-10T22:57:10.351Z,11.63
2023-04-10T22:59:37.909Z,11.40
2023-04-10T23:02:04.921Z,11.90
2023-04-10T23:04:32.056Z,12.23
2023-04-10T23:06:59.230Z,10.90
2023-04-10T23:09:26.068Z,11.00
2023-04-10T23:11:52.897Z,11.00
2023-04-10T23:14:20.306Z,11.07
2023-04-10T23:16:47.168Z,11.57
2023-04-10T23:19:14.148Z,10.57
2023-04-10T23:21:41.115Z,9.93
2023-04-10T23:24:08.069Z,12.30
2023-04-10T23:26:34.970Z,11.43
2023-04-10T23:29:02.012Z,11.27
2023-04-10T23:31:28.851Z,10.43
2023-04-10T23:33:55.776Z,10.87
2023-04-10T23:36:22.578Z,10.80
2023-04-10T23:38:49.458Z,10.93
2023-04-10T23:41:16.314Z,10.93
2023-04-10T23:43:43.819Z,10.70
2023-04-10T23:46:10.648Z,12.20
2023-04-10T23:48:37.520Z,11.27
2023-04-10T23:51:08.659Z,11.27
2023-04-10T23:53:35.515Z,11.17
2023-04-10T23:56:02.326Z,11.50
2023-04-10T23:58:29.204Z,12.13
